Time;durP1;ratioP1;P1;durP2;ratioP2;P2;SDS_P1;SDS_P2;PMS_P1;PMS_P2;Temp;Humidity;BMP_temperature;BMP_pressure;BME280_temperature;BME280_humidity;BME280_pressure;Samples;Min_cycle;Max_cycle;Signal;HPM_P1;HPM_P2
2023/03/26 00:01:14;;;;;;;12.27;2.60;;;;;;;;;;5076921;28;20427;-80
2023/03/26 00:03:41;;;;;;;5.87;2.80;;;;;;;;;;5071657;28;20547;-80
2023/03/26 00:06:09;;;;;;;10.93;3.20;;;;;;;;;;5074195;28;20455;-80
2023/03/26 00:08:37;;;;;;;9.97;3.40;;;;;;;;;;5080100;28;20933;-80
2023/03/26 00:11:04;;;;;;;5.83;2.93;;;;;;;;;;5070269;28;20483;-79
2023/03/26 00:13:30;;;;;;;11.15;2.85;;;;;;;;;;5082780;28;20497;-79
2023/03/26 00:15:56;;;;;;;9.40;3.50;;;;;;;;;;5074540;28;20194;-81
2023/03/26 00:18:29;;;;;;;10.37;4.07;;;;;;;;;;5086534;28;20492;-81
2023/03/26 00:20:58;;;;;;;10.10;3.80;;;;;;;;;;5075648;28;20792;-81
2023/03/26 00:23:25;;;;;;;5.63;2.53;;;;;;;;;;5082716;28;20438;-83
2023/03/26 00:25:52;;;;;;;8.40;3.00;;;;;;;;;;5081850;28;20463;-81
2023/03/26 00:28:21;;;;;;;15.23;3.10;;;;;;;;;;5083069;28;20523;-81
2023/03/26 00:30:48;;;;;;;14.53;3.73;;;;;;;;;;5078353;28;21032;-83
2023/03/26 00:33:20;;;;;;;13.20;3.87;;;;;;;;;;5083359;28;20442;-80
2023/03/26 00:35:51;;;;;;;15.20;3.67;;;;;;;;;;5075891;28;20688;-80
2023/03/26 00:38:17;;;;;;;14.87;4.67;;;;;;;;;;5086887;28;20515;-81
2023/03/26 00:40:46;;;;;;;18.13;5.60;;;;;;;;;;5079126;28;20580;-82
2023/03/26 00:43:19;;;;;;;11.10;3.90;;;;;;;;;;5078700;28;20916;-81
2023/03/26 00:45:45;;;;;;;11.13;4.70;;;;;;;;;;5070533;28;20955;-79
2023/03/26 00:48:12;;;;;;;18.50;3.83;;;;;;;;;;5078015;28;20461;-80
2023/03/26 00:50:38;;;;;;;15.00;3.70;;;;;;;;;;5077161;28;20968;-80
2023/03/26 00:53:04;;;;;;;11.87;3.40;;;;;;;;;;5087165;28;20928;-81
2023/03/26 00:55:30;;;;;;;8.80;2.90;;;;;;;;;;5067874;28;20942;-81
2023/03/26 00:57:56;;;;;;;16.40;3.70;;;;;;;;;;5079943;28;20419;-80
2023/03/26 01:00:30;;;;;;;11.10;3.53;;;;;;;;;;5068479;28;20448;-80
2023/03/26 01:02:57;;;;;;;12.20;3.20;;;;;;;;;;5087206;28;20562;-80
2023/03/26 01:05:32;;;;;;;21.00;4.67;;;;;;;;;;5076935;28;20605;-80
2023/03/26 01:08:00;;;;;;;15.43;4.23;;;;;;;;;;5079680;28;20446;-80
2023/03/26 01:10:26;;;;;;;20.23;3.67;;;;;;;;;;5079974;28;20497;-81
2023/03/26 01:12:52;;;;;;;14.93;3.40;;;;;;;;;;5076186;28;20630;-80
2023/03/26 01:15:20;;;;;;;16.57;2.87;;;;;;;;;;5081334;28;20519;-81
2023/03/26 01:17:50;;;;;;;17.10;3.87;;;;;;;;;;5086513;28;20418;-80
2023/03/26 01:20:19;;;;;;;13.13;4.10;;;;;;;;;;5078455;28;20450;-80
2023/03/26 01:22:50;;;;;;;9.10;3.30;;;;;;;;;;5083785;28;20420;-80
2023/03/26 01:25:16;;;;;;;12.10;2.47;;;;;;;;;;5086728;28;20452;-81
2023/03/26 01:27:45;;;;;;;8.70;3.20;;;;;;;;;;5096339;28;20612;-81
2023/03/26 01:30:22;;;;;;;14.13;5.43;;;;;;;;;;5084296;28;20440;-81
2023/03/26 01:32:48;;;;;;;5.97;2.70;;;;;;;;;;5102068;28;20420;-81
2023/03/26 01:35:21;;;;;;;16.90;4.20;;;;;;;;;;5087182;28;20444;-79
2023/03/26 01:38:13;;;;;;;17.83;4.30;;;;;;;;;;5088490;28;20477;-80
2023/03/26 01:40:41;;;;;;;14.43;3.67;;;;;;;;;;5079902;28;20420;-81
2023/03/26 01:43:22;;;;;;;12.73;3.40;;;;;;;;;;5087666;28;20432;-80
2023/03/26 01:45:49;;;;;;;15.93;6.00;;;;;;;;;;5080575;28;20501;-81
2023/03/26 01:48:16;;;;;;;9.47;3.97;;;;;;;;;;5072502;28;20467;-80
2023/03/26 01:50:42;;;;;;;16.50;3.53;;;;;;;;;;5071340;28;20799;-80
2023/03/26 01:53:09;;;;;;;14.53;5.40;;;;;;;;;;5085215;28;20427;-81
2023/03/26 01:55:42;;;;;;;15.57;4.10;;;;;;;;;;5073658;28;20436;-81
2023/03/26 01:58:08;;;;;;;16.47;5.20;;;;;;;;;;5086297;28;20412;-80
2023/03/26 02:00:50;;;;;;;17.63;4.20;;;;;;;;;;5081181;28;20761;-80
2023/03/26 02:03:25;;;;;;;11.63;3.67;;;;;;;;;;5084693;28;20427;-81
2023/03/26 02:05:53;;;;;;;13.93;6.20;;;;;;;;;;5081833;28;20432;-81
2023/03/26 02:08:22;;;;;;;19.03;4.90;;;;;;;;;;5083515;28;20454;-81
2023/03/26 02:10:56;;;;;;;4.13;3.30;;;;;;;;;;5080350;28;20439;-82
2023/03/26 02:13:23;;;;;;;18.17;5.37;;;;;;;;;;5083109;28;20424;-82
2023/03/26 02:15:59;;;;;;;21.87;5.63;;;;;;;;;;5081511;28;20451;-80
2023/03/26 02:18:34;;;;;;;17.20;3.80;;;;;;;;;;5086323;28;20434;-81
2023/03/26 02:21:01;;;;;;;20.47;4.40;;;;;;;;;;5066818;28;20516;-82
2023/03/26 02:23:28;;;;;;;14.30;4.50;;;;;;;;;;5064092;28;20417;-81
2023/03/26 02:25:54;;;;;;;18.00;4.43;;;;;;;;;;5064023;28;20493;-80
2023/03/26 02:28:21;;;;;;;7.47;4.10;;;;;;;;;;5086107;28;20431;-80
2023/03/26 02:30:47;;;;;;;16.17;4.97;;;;;;;;;;5066667;28;20431;-80
2023/03/26 02:33:14;;;;;;;17.07;4.10;;;;;;;;;;5086640;28;20436;-80
2023/03/26 02:35:43;;;;;;;18.33;3.70;;;;;;;;;;5076383;28;20432;-79
2023/03/26 02:38:13;;;;;;;10.53;4.07;;;;;;;;;;5069789;28;20448;-81
2023/03/26 02:40:39;;;;;;;30.27;4.33;;;;;;;;;;5071555;28;20443;-80
2023/03/26 02:43:05;;;;;;;9.90;3.37;;;;;;;;;;5085253;28;20883;-80
2023/03/26 02:45:31;;;;;;;17.13;4.37;;;;;;;;;;5071983;28;20508;-79
2023/03/26 02:47:59;;;;;;;18.47;4.37;;;;;;;;;;5085329;28;20487;-79
2023/03/26 02:50:25;;;;;;;16.60;4.30;;;;;;;;;;5070330;28;20929;-79
2023/03/26 02:52:53;;;;;;;11.03;4.13;;;;;;;;;;5083731;28;20660;-80
2023/03/26 02:55:19;;;;;;;25.87;4.40;;;;;;;;;;5080180;28;20443;-79
2023/03/26 02:57:45;;;;;;;16.17;3.60;;;;;;;;;;5067149;28;20824;-79
2023/03/26 03:00:15;;;;;;;9.57;4.87;;;;;;;;;;5076850;28;20889;-81
2023/03/26 03:02:46;;;;;;;23.07;3.90;;;;;;;;;;5089145;28;20436;-80
2023/03/26 03:05:12;;;;;;;14.53;4.97;;;;;;;;;;5072371;28;21491;-81
2023/03/26 03:07:39;;;;;;;11.00;4.27;;;;;;;;;;5081507;28;20400;-81
2023/03/26 03:10:07;;;;;;;9.20;4.10;;;;;;;;;;5085302;28;20427;-80
2023/03/26 03:12:33;;;;;;;11.13;3.77;;;;;;;;;;5069169;28;20471;-80
2023/03/26 03:14:59;;;;;;;16.77;5.00;;;;;;;;;;5079203;28;20454;-80
2023/03/26 03:17:25;;;;;;;19.73;5.57;;;;;;;;;;5085125;28;20428;-80
2023/03/26 03:19:52;;;;;;;8.77;3.70;;;;;;;;;;5082582;28;20493;-78
2023/03/26 03:22:18;;;;;;;10.13;3.17;;;;;;;;;;5078079;28;20984;-80
2023/03/26 03:24:45;;;;;;;20.03;3.43;;;;;;;;;;5076027;28;20548;-80
2023/03/26 03:27:11;;;;;;;8.70;2.90;;;;;;;;;;5078566;28;20442;-80
2023/03/26 03:29:40;;;;;;;12.90;4.30;;;;;;;;;;5079985;28;20470;-80
2023/03/26 03:32:06;;;;;;;12.27;3.70;;;;;;;;;;5071049;28;20786;-79
2023/03/26 03:34:32;;;;;;;12.50;3.80;;;;;;;;;;5088229;28;20444;-79
2023/03/26 03:37:01;;;;;;;18.53;4.00;;;;;;;;;;5098069;28;20539;-80
2023/03/26 03:39:27;;;;;;;8.90;4.60;;;;;;;;;;5094583;28;20467;-77
2023/03/26 03:41:55;;;;;;;12.43;4.67;;;;;;;;;;5082162;28;20431;-79
2023/03/26 03:44:21;;;;;;;16.80;4.23;;;;;;;;;;5079477;28;20476;-79
2023/03/26 03:46:52;;;;;;;16.03;4.27;;;;;;;;;;5083916;28;20508;-81
2023/03/26 03:49:27;;;;;;;14.57;3.57;;;;;;;;;;5092914;28;20692;-80
2023/03/26 03:51:53;;;;;;;15.57;3.70;;;;;;;;;;5078317;28;20497;-79
2023/03/26 03:54:23;;;;;;;18.20;4.50;;;;;;;;;;5078930;28;20618;-81
2023/03/26 03:56:49;;;;;;;8.83;3.43;;;;;;;;;;5082830;28;20440;-79
2023/03/26 03:59:18;;;;;;;20.33;4.03;;;;;;;;;;5069847;28;20444;-81
2023/03/26 04:01:45;;;;;;;13.73;3.80;;;;;;;;;;5076934;28;20478;-79
2023/03/26 04:04:12;;;;;;;11.80;4.10;;;;;;;;;;5073800;28;20837;-79
2023/03/26 04:06:38;;;;;;;16.27;5.00;;;;;;;;;;5082651;28;20465;-81
2023/03/26 04:09:05;;;;;;;16.47;4.20;;;;;;;;;;5077211;28;20791;-80
2023/03/26 04:11:33;;;;;;;18.37;3.70;;;;;;;;;;5073507;28;20482;-80
2023/03/26 04:13:59;;;;;;;10.53;4.10;;;;;;;;;;5076059;28;20718;-80
2023/03/26 04:16:25;;;;;;;7.57;3.67;;;;;;;;;;5084321;28;20431;-79
2023/03/26 04:18:51;;;;;;;9.70;4.47;;;;;;;;;;5083135;28;20458;-80
2023/03/26 04:21:18;;;;;;;13.80;3.57;;;;;;;;;;5080137;28;20448;-80
2023/03/26 04:23:44;;;;;;;15.20;3.87;;;;;;;;;;5081010;28;21027;-81
2023/03/26 04:26:15;;;;;;;12.53;4.30;;;;;;;;;;5059091;28;20452;-80
2023/03/26 04:29:01;;;;;;;12.50;4.03;;;;;;;;;;5079663;28;21040;-80
2023/03/26 04:31:28;;;;;;;11.43;3.27;;;;;;;;;;5075059;28;20431;-81
2023/03/26 04:33:55;;;;;;;11.80;3.70;;;;;;;;;;5075722;28;20467;-80
2023/03/26 04:36:28;;;;;;;12.23;3.50;;;;;;;;;;5081790;28;20436;-80
2023/03/26 04:38:57;;;;;;;15.03;4.33;;;;;;;;;;5082457;28;20777;-79
2023/03/26 04:41:26;;;;;;;11.23;3.47;;;;;;;;;;5084724;28;20441;-80
2023/03/26 04:43:53;;;;;;;7.67;2.80;;;;;;;;;;5075671;28;20463;-80
2023/03/26 04:46:22;;;;;;;11.70;3.17;;;;;;;;;;5083843;28;20983;-80
2023/03/26 04:48:52;;;;;;;12.10;3.70;;;;;;;;;;5084805;28;20534;-80
2023/03/26 04:51:18;;;;;;;7.93;3.53;;;;;;;;;;5081304;28;20448;-79
2023/03/26 04:53:51;;;;;;;16.13;4.10;;;;;;;;;;5085323;28;20424;-79
2023/03/26 04:56:33;;;;;;;17.87;3.87;;;;;;;;;;5077536;28;20804;-79
2023/03/26 04:59:00;;;;;;;11.23;3.80;;;;;;;;;;5101658;28;20426;-79
2023/03/26 05:01:29;;;;;;;12.43;3.70;;;;;;;;;;5097106;28;20429;-79
2023/03/26 05:03:57;;;;;;;14.90;3.60;;;;;;;;;;5091021;28;20462;-79
2023/03/26 05:06:24;;;;;;;6.80;3.40;;;;;;;;;;5087535;28;20440;-80
2023/03/26 05:08:50;;;;;;;9.40;3.27;;;;;;;;;;5085584;28;20427;-81
2023/03/26 05:11:16;;;;;;;9.03;3.40;;;;;;;;;;5079773;28;20530;-78
2023/03/26 05:13:42;;;;;;;8.53;3.50;;;;;;;;;;5082451;28;20428;-79
2023/03/26 05:16:10;;;;;;;7.40;4.10;;;;;;;;;;5080033;28;20489;-79
2023/03/26 05:18:36;;;;;;;9.80;3.47;;;;;;;;;;5082724;28;20432;-80
2023/03/26 05:21:02;;;;;;;5.97;2.93;;;;;;;;;;5077646;28;20439;-80
2023/03/26 05:23:29;;;;;;;7.93;3.50;;;;;;;;;;5067645;28;20829;-79
2023/03/26 05:25:55;;;;;;;16.57;3.57;;;;;;;;;;5080948;28;20703;-79
2023/03/26 05:28:23;;;;;;;6.70;2.73;;;;;;;;;;5087327;28;20442;-79
2023/03/26 05:30:51;;;;;;;9.80;3.00;;;;;;;;;;5074844;28;20443;-79
2023/03/26 05:33:18;;;;;;;8.60;3.23;;;;;;;;;;5080063;28;20846;-80
2023/03/26 05:35:44;;;;;;;12.83;3.13;;;;;;;;;;5073569;28;20482;-79
2023/03/26 05:38:10;;;;;;;9.97;3.37;;;;;;;;;;5087730;28;20411;-79
2023/03/26 05:40:36;;;;;;;8.50;3.07;;;;;;;;;;5086934;28;20436;-79
2023/03/26 05:43:02;;;;;;;10.23;3.80;;;;;;;;;;5086872;28;20462;-80
2023/03/26 05:45:28;;;;;;;12.03;3.60;;;;;;;;;;5093524;28;20479;-80
2023/03/26 05:47:55;;;;;;;7.70;3.00;;;;;;;;;;5081746;28;20451;-79
2023/03/26 05:50:21;;;;;;;10.70;3.53;;;;;;;;;;5068488;28;20449;-79
2023/03/26 05:52:47;;;;;;;7.57;3.40;;;;;;;;;;5073337;28;20401;-79
2023/03/26 05:55:14;;;;;;;7.73;2.97;;;;;;;;;;5074868;28;20773;-80
2023/03/26 05:57:41;;;;;;;11.17;2.50;;;;;;;;;;5073832;28;20417;-80
2023/03/26 06:00:09;;;;;;;9.70;4.30;;;;;;;;;;5073415;28;20811;-80
2023/03/26 06:02:35;;;;;;;7.10;3.50;;;;;;;;;;5076720;28;20413;-80
2023/03/26 06:05:03;;;;;;;8.80;4.37;;;;;;;;;;5074459;28;20488;-80
2023/03/26 06:07:30;;;;;;;8.27;2.50;;;;;;;;;;5084679;28;20839;-81
2023/03/26 06:09:56;;;;;;;13.83;4.23;;;;;;;;;;5064223;28;20892;-80
2023/03/26 06:12:22;;;;;;;7.97;4.20;;;;;;;;;;5077840;28;20950;-79
2023/03/26 06:14:48;;;;;;;11.90;3.30;;;;;;;;;;5079115;28;20429;-81
2023/03/26 06:17:16;;;;;;;9.67;2.93;;;;;;;;;;5081454;28;20412;-81
2023/03/26 06:19:42;;;;;;;11.70;3.10;;;;;;;;;;5076900;28;20598;-81
2023/03/26 06:22:08;;;;;;;11.33;3.03;;;;;;;;;;5083914;28;20431;-76
2023/03/26 06:24:34;;;;;;;6.50;4.37;;;;;;;;;;5077780;28;20463;-79
2023/03/26 06:27:02;;;;;;;7.87;4.10;;;;;;;;;;5080378;28;20409;-78
2023/03/26 06:29:28;;;;;;;5.93;4.20;;;;;;;;;;5076169;28;20452;-79
2023/03/26 06:31:54;;;;;;;9.73;3.27;;;;;;;;;;5079525;28;20921;-79
2023/03/26 06:34:20;;;;;;;13.23;4.50;;;;;;;;;;5064915;28;20557;-79
2023/03/26 06:36:47;;;;;;;14.37;4.27;;;;;;;;;;5080073;28;20836;-80
2023/03/26 06:39:14;;;;;;;10.60;5.07;;;;;;;;;;5064945;28;20519;-78
2023/03/26 06:41:41;;;;;;;6.00;3.53;;;;;;;;;;5076627;28;20520;-79
2023/03/26 06:44:10;;;;;;;10.17;4.20;;;;;;;;;;5084369;28;20439;-80
2023/03/26 06:46:38;;;;;;;7.33;3.73;;;;;;;;;;5078616;28;20439;-80
2023/03/26 06:49:05;;;;;;;9.60;3.63;;;;;;;;;;5074304;28;20439;-80
2023/03/26 06:51:31;;;;;;;4.70;3.93;;;;;;;;;;5070770;28;20453;-79
2023/03/26 06:53:57;;;;;;;4.63;2.80;;;;;;;;;;5080544;28;20980;-75
2023/03/26 06:56:23;;;;;;;7.83;3.90;;;;;;;;;;5079143;28;20435;-75
2023/03/26 06:58:49;;;;;;;10.13;3.30;;;;;;;;;;5071728;28;20413;-81
2023/03/26 07:01:15;;;;;;;10.70;3.33;;;;;;;;;;5076962;28;20435;-78
2023/03/26 07:03:41;;;;;;;7.00;2.80;;;;;;;;;;5084926;28;20424;-79
2023/03/26 07:06:07;;;;;;;15.70;3.80;;;;;;;;;;5076773;28;20429;-80
2023/03/26 07:08:34;;;;;;;8.80;4.23;;;;;;;;;;5088652;28;20429;-79
2023/03/26 07:11:00;;;;;;;6.43;3.50;;;;;;;;;;5085705;28;20507;-82
2023/03/26 07:13:26;;;;;;;7.90;4.60;;;;;;;;;;5087358;28;20428;-82
2023/03/26 07:15:52;;;;;;;7.93;4.10;;;;;;;;;;5073444;28;20947;-79
2023/03/26 07:18:18;;;;;;;11.60;4.50;;;;;;;;;;5077684;28;20431;-78
2023/03/26 07:20:47;;;;;;;7.03;4.07;;;;;;;;;;5077182;28;20865;-79
2023/03/26 07:23:14;;;;;;;7.13;3.83;;;;;;;;;;5075304;28;20463;-79
2023/03/26 07:25:40;;;;;;;7.80;3.43;;;;;;;;;;5074692;28;20522;-79
2023/03/26 07:28:14;;;;;;;11.47;3.87;;;;;;;;;;5074908;28;20520;-78
2023/03/26 07:30:57;;;;;;;7.70;3.37;;;;;;;;;;5070504;28;20451;-78
2023/03/26 07:33:42;;;;;;;14.43;4.40;;;;;;;;;;5074897;28;20451;-80
2023/03/26 07:36:08;;;;;;;11.50;3.73;;;;;;;;;;5072649;28;20814;-79
2023/03/26 07:38:50;;;;;;;15.97;4.00;;;;;;;;;;5078726;28;21112;-80
2023/03/26 07:41:16;;;;;;;6.70;3.73;;;;;;;;;;5073811;28;20764;-80
2023/03/26 07:43:51;;;;;;;18.67;5.40;;;;;;;;;;5084611;28;20435;-78
2023/03/26 07:46:19;;;;;;;11.23;4.10;;;;;;;;;;5081908;28;20524;-79
2023/03/26 07:48:46;;;;;;;7.43;4.20;;;;;;;;;;5081845;28;20520;-79
2023/03/26 07:51:13;;;;;;;9.63;3.80;;;;;;;;;;5086708;28;20524;-79
2023/03/26 07:53:45;;;;;;;4.10;3.83;;;;;;;;;;5107192;28;20424;-78
2023/03/26 07:56:16;;;;;;;5.20;3.67;;;;;;;;;;5088152;28;20455;-79
2023/03/26 07:58:52;;;;;;;8.87;4.33;;;;;;;;;;5081222;28;20451;-77
2023/03/26 08:01:18;;;;;;;6.33;4.50;;;;;;;;;;5080837;28;20451;-77
2023/03/26 08:04:05;;;;;;;6.67;4.80;;;;;;;;;;5085418;28;20443;-78
2023/03/26 08:06:35;;;;;;;13.77;5.10;;;;;;;;;;5081241;28;20467;-78
2023/03/26 08:09:01;;;;;;;8.03;3.90;;;;;;;;;;5088085;28;20531;-78
2023/03/26 08:11:31;;;;;;;11.40;6.10;;;;;;;;;;5083203;28;20432;-79
2023/03/26 08:14:12;;;;;;;11.80;4.67;;;;;;;;;;5081082;28;20950;-81
2023/03/26 08:16:42;;;;;;;6.30;3.73;;;;;;;;;;5097803;28;20446;-79
2023/03/26 08:19:33;;;;;;;2.90;2.70;;;;;;;;;;5105308;28;20416;-78
2023/03/26 08:22:10;;;;;;;9.70;4.97;;;;;;;;;;5093493;28;20650;-80
2023/03/26 08:24:58;;;;;;;9.37;3.67;;;;;;;;;;5069629;28;20612;-79
2023/03/26 08:27:36;;;;;;;15.37;3.37;;;;;;;;;;5082678;28;20400;-80
2023/03/26 08:30:02;;;;;;;11.27;4.33;;;;;;;;;;5082146;28;20488;-79
2023/03/26 08:32:28;;;;;;;9.43;3.83;;;;;;;;;;5087587;28;20419;-80
2023/03/26 08:34:56;;;;;;;10.67;3.20;;;;;;;;;;5081954;28;20808;-80
2023/03/26 08:37:22;;;;;;;14.53;7.40;;;;;;;;;;5081871;28;20792;-77
2023/03/26 08:39:48;;;;;;;8.37;4.60;;;;;;;;;;5077297;28;20447;-78
2023/03/26 08:42:40;;;;;;;8.57;4.17;;;;;;;;;;5077899;28;20490;-79
2023/03/26 08:45:27;;;;;;;12.23;4.40;;;;;;;;;;5050293;28;20471;-78
2023/03/26 08:48:11;;;;;;;12.20;7.93;;;;;;;;;;5066323;28;20452;-78
2023/03/26 08:50:46;;;;;;;8.13;4.07;;;;;;;;;;5080474;28;20432;-79
2023/03/26 08:53:22;;;;;;;7.57;4.10;;;;;;;;;;5078861;28;20432;-77
2023/03/26 08:56:00;;;;;;;9.60;4.60;;;;;;;;;;5085692;28;20422;-80
2023/03/26 08:58:47;;;;;;;12.83;5.10;;;;;;;;;;5083104;28;20454;-77
2023/03/26 09:01:13;;;;;;;6.90;3.73;;;;;;;;;;5074670;28;20525;-79
2023/03/26 09:03:51;;;;;;;4.10;3.70;;;;;;;;;;5075291;28;20527;-78
2023/03/26 09:06:17;;;;;;;4.37;4.00;;;;;;;;;;5078296;28;20463;-77
2023/03/26 09:09:00;;;;;;;11.63;4.17;;;;;;;;;;5072322;28;20443;-75
2023/03/26 09:11:35;;;;;;;4.80;4.40;;;;;;;;;;5074609;28;20420;-75
2023/03/26 09:14:11;;;;;;;7.93;3.97;;;;;;;;;;5076452;28;20432;-77
2023/03/26 09:16:52;;;;;;;3.23;2.90;;;;;;;;;;5084345;28;20432;-78
2023/03/26 09:19:30;;;;;;;2.93;2.73;;;;;;;;;;5075119;28;20479;-78
2023/03/26 09:22:01;;;;;;;10.03;5.10;;;;;;;;;;5082313;28;20412;-78
2023/03/26 09:24:30;;;;;;;3.47;3.20;;;;;;;;;;5071631;28;21078;-79
2023/03/26 09:27:14;;;;;;;2.90;2.80;;;;;;;;;;5082827;28;20432;-76
2023/03/26 09:29:43;;;;;;;5.43;2.97;;;;;;;;;;5077882;28;20492;-76
2023/03/26 09:32:09;;;;;;;3.27;2.97;;;;;;;;;;5073065;28;20428;-74
2023/03/26 09:34:40;;;;;;;5.80;4.93;;;;;;;;;;5080954;28;20961;-76
2023/03/26 09:37:11;;;;;;;3.40;3.30;;;;;;;;;;5086848;28;20431;-78
2023/03/26 09:39:55;;;;;;;4.60;2.97;;;;;;;;;;5079917;28;20432;-78
2023/03/26 09:42:40;;;;;;;3.33;3.07;;;;;;;;;;5085490;28;20419;-77
2023/03/26 09:45:07;;;;;;;3.47;3.37;;;;;;;;;;5078568;28;20459;-77
2023/03/26 09:47:42;;;;;;;3.60;3.20;;;;;;;;;;5076493;28;20453;-78
2023/03/26 09:50:28;;;;;;;3.83;3.37;;;;;;;;;;5076981;28;20435;-77
2023/03/26 09:53:09;;;;;;;12.73;12.00;;;;;;;;;;5067797;28;20424;-77
2023/03/26 09:55:53;;;;;;;3.20;2.70;;;;;;;;;;5082050;28;20408;-78
2023/03/26 09:58:37;;;;;;;2.67;2.67;;;;;;;;;;5088462;28;20440;-78
2023/03/26 10:01:17;;;;;;;3.57;2.17;;;;;;;;;;5105238;28;20427;-77
2023/03/26 10:04:01;;;;;;;2.00;1.90;;;;;;;;;;5074060;28;20436;-76
2023/03/26 10:06:54;;;;;;;3.03;2.60;;;;;;;;;;5080836;28;20494;-77
2023/03/26 10:09:28;;;;;;;1.70;1.37;;;;;;;;;;5070103;28;20528;-78
2023/03/26 10:12:04;;;;;;;3.90;1.43;;;;;;;;;;5067730;28;20520;-77
2023/03/26 10:14:44;;;;;;;1.97;1.97;;;;;;;;;;5075482;28;20428;-79
2023/03/26 10:17:32;;;;;;;1.97;1.97;;;;;;;;;;5082115;28;20446;-74
2023/03/26 10:20:03;;;;;;;2.93;2.63;;;;;;;;;;5072768;28;20462;-79
2023/03/26 10:22:31;;;;;;;1.90;1.90;;;;;;;;;;5073901;28;20570;-78
2023/03/26 10:25:00;;;;;;;2.20;2.10;;;;;;;;;;5069679;28;20540;-78
2023/03/26 10:27:28;;;;;;;1.00;1.00;;;;;;;;;;5079464;28;20942;-79
2023/03/26 10:30:09;;;;;;;1.93;1.93;;;;;;;;;;5075798;28;20439;-78
2023/03/26 10:32:46;;;;;;;1.50;1.43;;;;;;;;;;5079871;28;20420;-79
2023/03/26 10:35:18;;;;;;;1.97;1.97;;;;;;;;;;5074139;28;20443;-81
2023/03/26 10:37:59;;;;;;;2.30;2.00;;;;;;;;;;5072049;28;20904;-81
2023/03/26 10:40:30;;;;;;;1.20;1.07;;;;;;;;;;5081377;28;20426;-81
2023/03/26 10:43:03;;;;;;;1.60;1.50;;;;;;;;;;5074510;28;20433;-81
2023/03/26 10:45:36;;;;;;;1.50;1.50;;;;;;;;;;5083078;28;20975;-81
2023/03/26 10:48:12;;;;;;;1.47;1.37;;;;;;;;;;5060470;28;20823;-80
2023/03/26 10:50:53;;;;;;;1.93;1.93;;;;;;;;;;5068293;28;20980;-82
2023/03/26 10:53:30;;;;;;;1.70;1.70;;;;;;;;;;5070528;28;20437;-82
2023/03/26 10:56:12;;;;;;;4.93;2.73;;;;;;;;;;5080831;28;20503;-83
2023/03/26 10:58:42;;;;;;;2.90;2.67;;;;;;;;;;5075304;28;20420;-84
2023/03/26 11:01:19;;;;;;;3.63;2.20;;;;;;;;;;5085842;28;20419;-80
2023/03/26 11:03:53;;;;;;;2.30;2.17;;;;;;;;;;5079268;28;20428;-80
2023/03/26 11:06:35;;;;;;;1.77;1.67;;;;;;;;;;5093966;28;20459;-82
2023/03/26 11:09:23;;;;;;;2.93;2.40;;;;;;;;;;5082713;28;20435;-83
2023/03/26 11:11:58;;;;;;;1.97;1.90;;;;;;;;;;5075797;28;20542;-81
2023/03/26 11:14:29;;;;;;;2.20;2.10;;;;;;;;;;5076127;28;20443;-77
2023/03/26 11:17:10;;;;;;;3.50;2.50;;;;;;;;;;5064860;28;20519;-80
2023/03/26 11:19:40;;;;;;;1.70;1.70;;;;;;;;;;5066174;28;20483;-80
2023/03/26 11:22:25;;;;;;;1.63;1.63;;;;;;;;;;5077131;28;20488;-80
2023/03/26 11:25:29;;;;;;;1.57;1.57;;;;;;;;;;5080514;28;20432;-81
2023/03/26 11:27:55;;;;;;;2.00;2.00;;;;;;;;;;5013727;28;20545;-79
2023/03/26 11:30:36;;;;;;;2.23;2.13;;;;;;;;;;5009059;28;20434;-80
2023/03/26 11:33:04;;;;;;;1.57;1.57;;;;;;;;;;5049750;28;20485;-81
2023/03/26 11:35:35;;;;;;;2.77;2.47;;;;;;;;;;5087370;28;20424;-80
2023/03/26 11:38:05;;;;;;;2.70;2.10;;;;;;;;;;5093812;28;20412;-78
2023/03/26 11:40:31;;;;;;;3.57;3.40;;;;;;;;;;5082031;28;20419;-77
2023/03/26 11:43:02;;;;;;;2.30;2.30;;;;;;;;;;5082199;28;20436;-82
2023/03/26 11:45:36;;;;;;;2.27;2.27;;;;;;;;;;5072095;28;20525;-78
2023/03/26 11:48:10;;;;;;;1.80;1.80;;;;;;;;;;5073764;28;20999;-81
2023/03/26 11:50:39;;;;;;;2.10;2.10;;;;;;;;;;5082117;28;20419;-80
2023/03/26 11:53:13;;;;;;;2.27;2.27;;;;;;;;;;5072763;28;20429;-81
2023/03/26 11:55:58;;;;;;;5.60;2.87;;;;;;;;;;5076238;28;20531;-79
2023/03/26 11:58:43;;;;;;;2.07;1.97;;;;;;;;;;5083905;28;20446;-79
2023/03/26 12:01:16;;;;;;;3.67;2.40;;;;;;;;;;5083303;28;20449;-82
2023/03/26 12:03:42;;;;;;;2.10;2.10;;;;;;;;;;5083390;28;20440;-80
2023/03/26 12:06:31;;;;;;;1.33;1.23;;;;;;;;;;5080405;28;20969;-81
2023/03/26 12:08:58;;;;;;;4.27;4.17;;;;;;;;;;5096052;28;20435;-78
2023/03/26 12:11:27;;;;;;;1.60;1.47;;;;;;;;;;5093791;28;20435;-79
2023/03/26 12:13:55;;;;;;;1.80;1.80;;;;;;;;;;5075187;28;20437;-78
2023/03/26 12:16:22;;;;;;;1.70;1.70;;;;;;;;;;5076001;28;20752;-77
2023/03/26 12:19:04;;;;;;;1.87;1.87;;;;;;;;;;5084896;28;20450;-84
2023/03/26 12:21:43;;;;;;;2.53;1.80;;;;;;;;;;5088433;28;20463;-83
2023/03/26 12:24:24;;;;;;;2.50;1.80;;;;;;;;;;5075201;28;20451;-82
2023/03/26 12:26:56;;;;;;;1.60;1.60;;;;;;;;;;5081612;28;20524;-82
2023/03/26 12:29:22;;;;;;;2.43;2.40;;;;;;;;;;5075063;28;20428;-82
2023/03/26 12:31:55;;;;;;;1.43;1.43;;;;;;;;;;5083526;28;20872;-81
2023/03/26 12:34:23;;;;;;;2.50;2.30;;;;;;;;;;5074906;28;20581;-82
2023/03/26 12:36:54;;;;;;;1.53;1.53;;;;;;;;;;5072959;28;20510;-80
2023/03/26 12:39:30;;;;;;;2.17;2.17;;;;;;;;;;5073562;28;20494;-78
2023/03/26 12:41:57;;;;;;;2.53;2.53;;;;;;;;;;5074362;28;20423;-80
2023/03/26 12:44:28;;;;;;;3.03;2.93;;;;;;;;;;5071137;28;20532;-79
2023/03/26 12:47:07;;;;;;;1.73;1.73;;;;;;;;;;5083220;28;20792;-79
2023/03/26 12:49:37;;;;;;;4.73;4.40;;;;;;;;;;5066819;28;20428;-77
2023/03/26 12:52:12;;;;;;;1.93;1.93;;;;;;;;;;5075560;28;20397;-80
2023/03/26 12:54:57;;;;;;;7.77;7.30;;;;;;;;;;5070946;28;20515;-78
2023/03/26 12:57:25;;;;;;;1.83;1.83;;;;;;;;;;5082000;28;20443;-78
2023/03/26 13:00:08;;;;;;;2.17;2.17;;;;;;;;;;5069397;28;20921;-80
2023/03/26 13:02:48;;;;;;;2.00;2.00;;;;;;;;;;5072786;28;20508;-79
2023/03/26 13:05:28;;;;;;;1.50;1.50;;;;;;;;;;5074870;28;20470;-80
2023/03/26 13:07:59;;;;;;;5.20;2.40;;;;;;;;;;5074189;28;20549;-80
2023/03/26 13:10:54;;;;;;;1.40;1.40;;;;;;;;;;5073896;28;20482;-78
2023/03/26 13:13:39;;;;;;;1.43;1.43;;;;;;;;;;5047478;28;20472;-80
2023/03/26 13:16:10;;;;;;;1.97;1.97;;;;;;;;;;5076181;28;20497;-79
2023/03/26 13:18:43;;;;;;;1.20;1.20;;;;;;;;;;5076840;28;20872;-80
2023/03/26 13:21:15;;;;;;;2.60;1.40;;;;;;;;;;5070886;28;20699;-81
2023/03/26 13:23:52;;;;;;;1.47;1.47;;;;;;;;;;5048828;28;20433;-79
2023/03/26 13:26:31;;;;;;;1.03;0.90;;;;;;;;;;5061998;28;20547;-79
2023/03/26 13:29:19;;;;;;;0.90;0.90;;;;;;;;;;5087090;28;20432;-79
2023/03/26 13:31:45;;;;;;;1.57;1.57;;;;;;;;;;5079946;28;20718;-80
2023/03/26 13:37:47;;;;;;;1.10;1.10;;;;;;;;;;5002181;28;20435;-81
2023/03/26 13:40:21;;;;;;;2.20;1.30;;;;;;;;;;5095404;28;20460;-80
2023/03/26 13:42:52;;;;;;;0.60;0.60;;;;;;;;;;5081436;28;20446;-82
2023/03/26 13:45:24;;;;;;;2.90;2.80;;;;;;;;;;5075602;28;20463;-80
2023/03/26 13:47:51;;;;;;;1.03;1.03;;;;;;;;;;5082404;28;20543;-82
2023/03/26 13:50:28;;;;;;;1.67;1.67;;;;;;;;;;5076354;28;20439;-80
2023/03/26 13:52:58;;;;;;;0.60;0.60;;;;;;;;;;5083483;28;20419;-81
2023/03/26 13:55:24;;;;;;;3.53;1.80;;;;;;;;;;5072473;28;21051;-78
2023/03/26 13:57:54;;;;;;;1.70;0.90;;;;;;;;;;5072536;28;20425;-79
2023/03/26 14:00:25;;;;;;;1.33;1.33;;;;;;;;;;5067153;28;20493;-81
2023/03/26 14:03:01;;;;;;;1.10;1.10;;;;;;;;;;5066763;28;20837;-79
2023/03/26 14:05:34;;;;;;;0.90;0.90;;;;;;;;;;5078801;28;20495;-80
2023/03/26 14:08:12;;;;;;;1.40;1.00;;;;;;;;;;5078005;28;20420;-79
2023/03/26 14:10:41;;;;;;;1.10;1.10;;;;;;;;;;5073464;28;20447;-79
2023/03/26 14:13:24;;;;;;;1.10;1.10;;;;;;;;;;5061269;28;20421;-83
2023/03/26 14:16:09;;;;;;;1.20;1.20;;;;;;;;;;5071910;28;20421;-81
2023/03/26 14:18:41;;;;;;;0.57;0.57;;;;;;;;;;5077242;28;20620;-82
2023/03/26 14:21:23;;;;;;;1.00;1.00;;;;;;;;;;5086591;28;20443;-80
2023/03/26 14:24:07;;;;;;;0.77;0.77;;;;;;;;;;5091014;28;21075;-82
2023/03/26 14:26:48;;;;;;;0.83;0.83;;;;;;;;;;5083007;28;20484;-83
2023/03/26 14:29:40;;;;;;;1.33;1.33;;;;;;;;;;5082002;28;20428;-81
2023/03/26 14:32:18;;;;;;;0.67;0.67;;;;;;;;;;5034585;28;20745;-82
2023/03/26 14:35:03;;;;;;;2.10;2.10;;;;;;;;;;5074611;28;20490;-82
2023/03/26 14:37:48;;;;;;;0.80;0.80;;;;;;;;;;5077314;28;20604;-81
2023/03/26 14:40:25;;;;;;;0.90;0.90;;;;;;;;;;5083733;28;20557;-82
2023/03/26 14:43:13;;;;;;;1.13;0.87;;;;;;;;;;5073842;28;20435;-82
2023/03/26 14:45:56;;;;;;;0.73;0.73;;;;;;;;;;5083641;28;20459;-83
2023/03/26 14:48:43;;;;;;;0.97;0.97;;;;;;;;;;5080443;28;20576;-84
2023/03/26 14:51:09;;;;;;;1.23;1.23;;;;;;;;;;5082257;28;20408;-83
2023/03/26 14:53:42;;;;;;;0.90;0.90;;;;;;;;;;5071039;28;20425;-83
2023/03/26 14:56:14;;;;;;;1.87;1.83;;;;;;;;;;5072665;28;20419;-81
2023/03/26 14:58:46;;;;;;;1.50;1.50;;;;;;;;;;5081757;28;20569;-81
2023/03/26 15:01:25;;;;;;;1.30;1.30;;;;;;;;;;5072297;28;20433;-80
2023/03/26 15:04:10;;;;;;;1.77;1.37;;;;;;;;;;5077328;28;20442;-79
2023/03/26 15:06:54;;;;;;;0.90;0.90;;;;;;;;;;5079591;28;20486;-81
2023/03/26 15:09:23;;;;;;;1.20;1.20;;;;;;;;;;5079158;28;20408;-84